Time;durP1;ratioP1;P1;durP2;ratioP2;P2;SDS_P1;SDS_P2;PMS_P1;PMS_P2;Temp;Humidity;BMP_temperature;BMP_pressure;BME280_temperature;BME280_humidity;BME280_pressure;Samples;Min_cycle;Max_cycle;Signal;HPM_P1;HPM_P2
2024/04/02 00:01:11;;;;;;;90.03;17.90;;;15.70;99.90;;;;;;4865789;29;20033;-88
2024/04/02 00:03:38;;;;;;;74.43;17.38;;;15.60;99.90;;;;;;4850470;29;20033;-87
2024/04/02 00:06:05;;;;;;;77.82;19.90;;;15.60;99.90;;;;;;4881599;29;20037;-87
2024/04/02 00:08:31;;;;;;;94.25;17.65;;;15.60;99.90;;;;;;4850422;29;20044;-89
2024/04/02 00:11:06;;;;;;;95.78;19.52;;;15.60;99.90;;;;;;4850332;29;20029;-87
2024/04/02 00:13:34;;;;;;;97.55;17.95;;;15.70;99.90;;;;;;4850311;29;20069;-87
2024/04/02 00:16:01;;;;;;;90.47;18.10;;;15.70;99.90;;;;;;4850562;29;20033;-88
2024/04/02 00:18:28;;;;;;;90.13;17.63;;;15.70;99.90;;;;;;4865995;29;20025;-88
2024/04/02 00:21:00;;;;;;;99.50;18.20;;;15.80;99.90;;;;;;4850659;29;20505;-87
2024/04/02 00:23:27;;;;;;;71.93;17.10;;;15.70;99.90;;;;;;4850544;29;20037;-88
2024/04/02 00:26:03;;;;;;;73.95;17.65;;;15.70;99.90;;;;;;4850059;29;20029;-88
2024/04/02 00:28:29;;;;;;;92.78;17.92;;;15.70;99.90;;;;;;4881232;29;20120;-88
2024/04/02 00:31:00;;;;;;;79.80;17.02;;;15.60;99.90;;;;;;4850305;29;20025;-88
2024/04/02 00:33:30;;;;;;;64.72;17.10;;;15.50;99.90;;;;;;4865490;29;20487;-88
2024/04/02 00:36:04;;;;;;;74.40;17.00;;;15.40;99.90;;;;;;4865457;29;20044;-87
2024/04/02 00:38:31;;;;;;;76.53;17.38;;;15.40;99.90;;;;;;4850240;29;20041;-88
2024/04/02 00:40:58;;;;;;;78.97;16.63;;;15.30;99.90;;;;;;4865310;29;20067;-88
2024/04/02 00:43:27;;;;;;;79.90;18.00;;;15.20;99.90;;;;;;4868643;29;20048;-87
2024/04/02 00:45:55;;;;;;;84.90;18.25;;;15.10;99.90;;;;;;4862220;29;20030;-88
2024/04/02 00:48:23;;;;;;;69.28;17.27;;;15.10;99.90;;;;;;4862207;29;20029;-88
2024/04/02 00:50:50;;;;;;;61.10;16.00;;;15.00;99.90;;;;;;4862091;29;20480;-88
2024/04/02 00:53:19;;;;;;;61.88;15.20;;;15.00;99.90;;;;;;4862578;29;20087;-89
2024/04/02 00:55:47;;;;;;;69.20;15.20;;;15.00;99.90;;;;;;4862089;29;20065;-88
2024/04/02 00:58:16;;;;;;;57.53;16.55;;;15.00;99.90;;;;;;4862063;29;20050;-87
2024/04/02 01:00:43;;;;;;;53.50;15.07;;;14.90;99.90;;;;;;4862185;29;20029;-88
2024/04/02 01:03:10;;;;;;;50.95;15.00;;;14.80;99.90;;;;;;4861866;29;20042;-86
2024/04/02 01:05:38;;;;;;;59.13;16.17;;;14.80;99.90;;;;;;4861947;29;20038;-88
2024/04/02 01:08:05;;;;;;;52.33;15.07;;;14.80;99.90;;;;;;4864824;29;20033;-87
2024/04/02 01:10:32;;;;;;;58.45;14.55;;;14.70;99.90;;;;;;4849291;29;20036;-89
2024/04/02 01:12:59;;;;;;;72.35;15.80;;;14.70;99.90;;;;;;4880383;29;20037;-87
2024/04/02 01:15:26;;;;;;;61.95;15.07;;;14.70;99.90;;;;;;4849432;29;20478;-88
2024/04/02 01:17:54;;;;;;;57.72;15.05;;;14.70;99.90;;;;;;4849420;29;20040;-87
2024/04/02 01:20:21;;;;;;;56.45;14.82;;;14.80;99.90;;;;;;4849602;29;20041;-88
2024/04/02 01:22:47;;;;;;;55.28;14.95;;;14.90;99.90;;;;;;4849301;29;20037;-88
2024/04/02 01:25:18;;;;;;;46.25;13.50;;;14.80;99.90;;;;;;4880050;29;20119;-87
2024/04/02 01:27:45;;;;;;;53.92;14.77;;;14.80;99.90;;;;;;4834963;29;20068;-87
2024/04/02 01:30:11;;;;;;;50.08;14.73;;;14.80;99.90;;;;;;4864485;29;20040;-87
2024/04/02 01:32:37;;;;;;;49.25;15.02;;;14.80;99.90;;;;;;4864449;29;20052;-88
2024/04/02 01:35:04;;;;;;;65.13;15.65;;;14.80;99.90;;;;;;4849073;29;20025;-88
2024/04/02 01:37:31;;;;;;;66.40;14.90;;;14.80;99.90;;;;;;4863862;29;20490;-89
2024/04/02 01:39:57;;;;;;;59.67;15.02;;;14.80;99.90;;;;;;4849163;29;20025;-88
2024/04/02 01:42:24;;;;;;;58.17;15.02;;;14.80;99.90;;;;;;4864239;29;20041;-88
2024/04/02 01:44:51;;;;;;;44.97;14.63;;;14.90;99.90;;;;;;4848976;29;20029;-87
2024/04/02 01:47:17;;;;;;;53.95;14.25;;;14.90;99.90;;;;;;4864044;29;20037;-88
2024/04/02 01:49:44;;;;;;;68.18;14.77;;;14.90;99.90;;;;;;4864497;29;20035;-88
2024/04/02 01:52:10;;;;;;;52.88;14.63;;;14.90;99.90;;;;;;4848816;29;20063;-87
2024/04/02 01:54:40;;;;;;;44.72;14.57;;;14.90;99.90;;;;;;4848746;29;20033;-87
2024/04/02 01:57:06;;;;;;;48.05;14.57;;;14.90;99.90;;;;;;4872458;29;20021;-87
2024/04/02 01:59:33;;;;;;;49.45;13.02;;;14.90;99.90;;;;;;4848994;29;20029;-89
2024/04/02 02:01:59;;;;;;;53.75;13.50;;;14.90;99.90;;;;;;4864070;29;20052;-88
2024/04/02 02:04:26;;;;;;;57.33;14.52;;;14.90;99.90;;;;;;4864111;29;20505;-87
2024/04/02 02:06:53;;;;;;;50.35;13.75;;;14.80;99.90;;;;;;4848735;29;20036;-88
2024/04/02 02:09:19;;;;;;;44.17;13.38;;;14.80;99.90;;;;;;4863859;29;20033;-88
2024/04/02 02:11:46;;;;;;;44.35;13.48;;;14.80;99.90;;;;;;4848550;29;20029;-88
2024/04/02 02:14:14;;;;;;;54.72;14.57;;;14.80;99.90;;;;;;4863928;29;20037;-87
2024/04/02 02:16:40;;;;;;;48.90;14.32;;;14.70;99.90;;;;;;4848679;29;20028;-87
2024/04/02 02:19:07;;;;;;;56.58;15.63;;;14.70;99.90;;;;;;4863975;29;20029;-88
2024/04/02 02:21:40;;;;;;;51.35;16.13;;;14.60;99.90;;;;;;4848454;29;20043;-88
2024/04/02 02:24:07;;;;;;;57.93;15.33;;;14.60;99.90;;;;;;4863987;29;20036;-89
2024/04/02 02:26:35;;;;;;;50.78;14.85;;;14.60;99.90;;;;;;4848622;29;20025;-88
2024/04/02 02:29:01;;;;;;;64.40;16.70;;;14.60;99.90;;;;;;4863896;29;20550;-89
2024/04/02 02:31:28;;;;;;;56.17;15.32;;;14.50;99.90;;;;;;4863657;29;20033;-88
2024/04/02 02:33:54;;;;;;;43.13;14.23;;;14.50;99.90;;;;;;4863796;29;20108;-86
2024/04/02 02:36:20;;;;;;;54.58;15.60;;;14.50;99.90;;;;;;4848091;29;20032;-88
2024/04/02 02:38:47;;;;;;;63.25;15.18;;;14.40;99.90;;;;;;4879035;29;20542;-88
2024/04/02 02:41:13;;;;;;;47.22;13.70;;;14.40;99.90;;;;;;4848077;29;20029;-88
2024/04/02 02:43:40;;;;;;;44.97;14.43;;;14.40;99.90;;;;;;4864021;29;20040;-87
2024/04/02 02:46:07;;;;;;;47.75;14.02;;;14.40;99.90;;;;;;4863880;29;20057;-87
2024/04/02 02:48:33;;;;;;;50.28;14.98;;;14.30;99.90;;;;;;4864738;29;20033;-87
2024/04/02 02:50:59;;;;;;;58.30;16.50;;;14.30;99.90;;;;;;4867855;29;20036;-88
2024/04/02 02:53:26;;;;;;;64.68;15.18;;;14.30;99.90;;;;;;4883182;29;20040;-88
2024/04/02 02:55:56;;;;;;;61.15;14.77;;;14.30;99.90;;;;;;4851824;29;20072;-88
2024/04/02 02:58:22;;;;;;;54.60;14.88;;;14.30;99.90;;;;;;4882756;29;20036;-88
2024/04/02 03:00:49;;;;;;;45.05;13.85;;;14.20;99.90;;;;;;4856962;29;20034;-87
2024/04/02 03:03:16;;;;;;;50.33;13.65;;;14.20;99.90;;;;;;4864482;29;20049;-90
2024/04/02 03:05:52;;;;;;;70.55;14.85;;;14.20;99.90;;;;;;4864248;29;20030;-90
2024/04/02 03:08:18;;;;;;;45.40;14.02;;;14.10;99.90;;;;;;4866835;29;20483;-89
2024/04/02 03:10:54;;;;;;;59.33;13.88;;;14.10;99.90;;;;;;4851792;29;20089;-87
2024/04/02 03:13:23;;;;;;;55.85;13.38;;;14.20;99.90;;;;;;4882720;29;20041;-89
2024/04/02 03:15:50;;;;;;;37.85;13.18;;;14.10;99.90;;;;;;4851544;29;20028;-89
2024/04/02 03:18:16;;;;;;;50.05;13.13;;;14.10;99.90;;;;;;4866878;29;20398;-90
2024/04/02 03:20:43;;;;;;;47.20;13.10;;;14.00;99.90;;;;;;4851438;29;20025;-86
2024/04/02 03:23:12;;;;;;;45.35;13.45;;;14.00;99.90;;;;;;4866227;29;20426;-85
2024/04/02 03:25:42;;;;;;;48.72;12.80;;;14.10;99.90;;;;;;4851158;29;20036;-86
2024/04/02 03:28:09;;;;;;;40.33;12.30;;;14.10;99.90;;;;;;4851058;29;20064;-85
2024/04/02 03:30:36;;;;;;;45.63;12.23;;;14.20;99.90;;;;;;4882360;29;20451;-86
2024/04/02 03:33:03;;;;;;;42.42;12.23;;;14.30;99.90;;;;;;4863151;29;20045;-86
2024/04/02 03:35:35;;;;;;;46.20;12.25;;;14.30;99.90;;;;;;4863372;29;20069;-87
2024/04/02 03:38:01;;;;;;;44.35;13.02;;;14.30;99.90;;;;;;4863425;29;20068;-86
2024/04/02 03:40:27;;;;;;;40.25;12.77;;;14.40;99.90;;;;;;4848102;29;20394;-85
2024/04/02 03:42:54;;;;;;;42.78;12.73;;;14.50;99.90;;;;;;4847953;29;20041;-88
2024/04/02 03:45:21;;;;;;;48.28;13.07;;;14.60;99.90;;;;;;4863403;29;20030;-86
2024/04/02 03:47:48;;;;;;;41.70;14.77;;;14.60;99.90;;;;;;4865571;29;20037;-86
2024/04/02 03:50:14;;;;;;;35.80;14.13;;;14.60;99.90;;;;;;4851057;29;20029;-86
2024/04/02 03:52:40;;;;;;;34.33;12.85;;;14.60;99.90;;;;;;4866170;29;20045;-86
2024/04/02 03:55:10;;;;;;;48.42;14.75;;;14.50;99.90;;;;;;4850697;29;20064;-87
2024/04/02 03:57:37;;;;;;;34.08;13.60;;;14.50;99.90;;;;;;4850682;29;20088;-85
2024/04/02 04:00:04;;;;;;;39.70;13.80;;;14.60;99.90;;;;;;4882047;29;20034;-85
2024/04/02 04:02:36;;;;;;;37.70;13.77;;;14.50;99.90;;;;;;4881575;29;20049;-85
2024/04/02 04:05:02;;;;;;;39.30;13.60;;;14.50;99.90;;;;;;4881401;29;20109;-85
2024/04/02 04:07:32;;;;;;;40.83;13.45;;;14.50;99.90;;;;;;4850478;29;20052;-87
2024/04/02 04:09:58;;;;;;;38.40;13.25;;;14.40;99.90;;;;;;4865866;29;20040;-86
2024/04/02 04:12:25;;;;;;;42.30;13.63;;;14.40;99.90;;;;;;4850568;29;20032;-86
2024/04/02 04:14:51;;;;;;;40.58;13.77;;;14.40;99.90;;;;;;4850473;29;20033;-86
2024/04/02 04:17:18;;;;;;;44.33;13.88;;;14.40;99.90;;;;;;4881200;29;20048;-87
2024/04/02 04:19:47;;;;;;;41.00;14.00;;;14.40;99.90;;;;;;4865559;29;20478;-86
2024/04/02 04:22:14;;;;;;;46.15;13.57;;;14.30;99.90;;;;;;4865541;29;20041;-85
2024/04/02 04:24:42;;;;;;;35.17;12.35;;;14.30;99.90;;;;;;4850221;29;20077;-85
2024/04/02 04:27:09;;;;;;;26.95;12.77;;;14.30;99.90;;;;;;4864443;29;20056;-83
2024/04/02 04:29:36;;;;;;;38.00;14.43;;;14.20;99.90;;;;;;4865130;29;20041;-89
2024/04/02 04:32:03;;;;;;;39.90;13.55;;;14.10;99.90;;;;;;4881391;29;20053;-88
2024/04/02 04:34:29;;;;;;;44.42;14.20;;;14.10;99.90;;;;;;4867954;29;20127;-89
2024/04/02 04:36:56;;;;;;;35.50;13.38;;;13.90;99.90;;;;;;4852001;29;20096;-89
2024/04/02 04:39:22;;;;;;;31.48;13.27;;;13.90;99.90;;;;;;4867769;29;20037;-90
2024/04/02 04:41:49;;;;;;;41.42;13.63;;;13.80;99.90;;;;;;4850046;29;20037;-89
2024/04/02 04:44:16;;;;;;;34.28;13.18;;;13.80;99.90;;;;;;4850132;29;20044;-89
2024/04/02 04:46:42;;;;;;;43.45;13.40;;;13.70;99.90;;;;;;4849726;29;20414;-89
2024/04/02 04:49:09;;;;;;;45.38;14.18;;;13.70;99.90;;;;;;4850046;29;20033;-88
2024/04/02 04:51:38;;;;;;;39.33;14.15;;;13.70;99.90;;;;;;4865426;29;20155;-89
2024/04/02 04:54:05;;;;;;;43.67;13.55;;;13.70;99.90;;;;;;4865103;29;20025;-89
2024/04/02 04:56:31;;;;;;;35.83;13.07;;;13.80;99.90;;;;;;4865236;29;20040;-90
2024/04/02 04:58:58;;;;;;;45.03;13.20;;;13.80;99.90;;;;;;4849695;29;20029;-88
2024/04/02 05:01:24;;;;;;;40.35;13.15;;;13.90;99.90;;;;;;4849943;29;20069;-89
2024/04/02 05:03:51;;;;;;;38.95;13.85;;;14.00;99.90;;;;;;4865044;29;20125;-90
2024/04/02 05:06:23;;;;;;;36.08;12.65;;;13.90;99.90;;;;;;4849712;29;20025;-90
2024/04/02 05:08:50;;;;;;;38.22;13.23;;;14.00;99.90;;;;;;4865341;29;20065;-89
2024/04/02 05:11:17;;;;;;;42.03;12.98;;;14.10;99.90;;;;;;4865095;29;20036;-89
2024/04/02 05:13:43;;;;;;;40.90;13.18;;;14.10;99.90;;;;;;4864903;29;20066;-90
2024/04/02 05:16:09;;;;;;;41.30;13.38;;;14.20;99.90;;;;;;4880277;29;20033;-90
2024/04/02 05:18:36;;;;;;;39.25;12.90;;;14.20;99.90;;;;;;4849365;29;20052;-89
2024/04/02 05:21:03;;;;;;;42.58;13.35;;;14.30;99.90;;;;;;4848237;29;20025;-89
2024/04/02 05:23:29;;;;;;;40.25;12.90;;;14.40;99.90;;;;;;4846210;29;20124;-89
2024/04/02 05:26:02;;;;;;;41.00;14.30;;;14.50;99.90;;;;;;4846649;29;20129;-89
2024/04/02 05:28:37;;;;;;;36.03;12.90;;;14.60;99.90;;;;;;4861473;29;20146;-89
2024/04/02 05:31:07;;;;;;;34.38;13.60;;;14.70;99.90;;;;;;4847035;29;20121;-90
2024/04/02 05:33:34;;;;;;;37.40;13.70;;;14.90;99.90;;;;;;4846282;29;20049;-90
2024/04/02 05:36:01;;;;;;;31.77;13.13;;;15.00;99.90;;;;;;4849054;29;20043;-89
2024/04/02 05:38:27;;;;;;;38.42;14.30;;;15.20;99.90;;;;;;4849119;29;20040;-89
2024/04/02 05:40:55;;;;;;;39.60;14.32;;;15.40;99.90;;;;;;4864450;29;20025;-88
2024/04/02 05:43:24;;;;;;;28.33;13.40;;;15.60;99.90;;;;;;4864241;29;20068;-88
2024/04/02 05:45:51;;;;;;;36.50;14.95;;;15.70;99.90;;;;;;4864492;29;20482;-89
2024/04/02 05:48:18;;;;;;;29.92;13.80;;;15.80;99.90;;;;;;4848553;29;20037;-88
2024/04/02 05:50:55;;;;;;;36.08;15.52;;;16.10;99.90;;;;;;4849186;29;20041;-89
2024/04/02 05:53:22;;;;;;;37.67;16.73;;;16.40;99.90;;;;;;4865262;29;20394;-90
2024/04/02 05:55:51;;;;;;;31.52;18.30;;;16.40;99.90;;;;;;4849285;29;20490;-92
2024/04/02 05:58:21;;;;;;;32.55;18.40;;;16.40;99.90;;;;;;4882188;29;20040;-90
2024/04/02 06:01:00;;;;;;;26.80;18.23;;;16.40;99.90;;;;;;4850906;29;20173;-88
2024/04/02 06:03:26;;;;;;;32.30;19.00;;;16.50;99.90;;;;;;4866134;29;20072;-90
2024/04/02 06:05:53;;;;;;;22.52;18.70;;;16.90;99.90;;;;;;4848980;29;20058;-86
2024/04/02 06:08:19;;;;;;;26.92;18.33;;;17.00;99.90;;;;;;4863786;29;20116;-88
2024/04/02 06:10:46;;;;;;;29.33;18.77;;;17.20;99.90;;;;;;4849370;29;20032;-88
2024/04/02 06:13:24;;;;;;;29.85;18.95;;;17.30;99.90;;;;;;4854375;29;20029;-93
2024/04/02 06:15:53;;;;;;;25.98;19.08;;;17.30;99.90;;;;;;4864732;29;20032;-93
2024/04/02 06:18:20;;;;;;;26.27;18.90;;;17.20;99.90;;;;;;4848981;29;20402;-89
2024/04/02 06:20:59;;;;;;;35.97;18.92;;;17.20;99.90;;;;;;4864209;29;20040;-89
2024/04/02 06:23:26;;;;;;;32.13;20.02;;;17.10;99.90;;;;;;4848640;29;20045;-88
2024/04/02 06:25:53;;;;;;;31.00;19.63;;;17.10;99.90;;;;;;4848681;29;20084;-91
2024/04/02 06:28:20;;;;;;;30.75;19.60;;;17.30;99.90;;;;;;4864276;29;20033;-89
2024/04/02 06:30:49;;;;;;;25.13;20.08;;;17.30;99.90;;;;;;4848539;29;20036;-90
2024/04/02 06:33:16;;;;;;;28.48;19.70;;;17.40;99.90;;;;;;4848435;29;20095;-89
2024/04/02 06:35:42;;;;;;;32.70;19.25;;;17.40;99.90;;;;;;4863494;29;20037;-90
2024/04/02 06:38:09;;;;;;;21.92;19.00;;;17.60;99.90;;;;;;4863758;29;20029;-90
2024/04/02 06:40:36;;;;;;;24.85;17.58;;;17.80;99.90;;;;;;4848518;29;20522;-90
2024/04/02 06:43:02;;;;;;;31.10;17.00;;;18.10;99.90;;;;;;4848158;29;20084;-91
2024/04/02 06:45:29;;;;;;;26.48;18.77;;;18.20;99.90;;;;;;4863922;29;20482;-90
2024/04/02 06:47:58;;;;;;;37.28;18.45;;;18.20;99.90;;;;;;4848436;29;20036;-91
2024/04/02 06:50:25;;;;;;;39.90;19.05;;;18.40;99.90;;;;;;4879843;29;20039;-91
2024/04/02 06:52:55;;;;;;;31.67;18.20;;;18.10;99.90;;;;;;4849355;29;20037;-91
2024/04/02 06:55:21;;;;;;;33.08;17.83;;;17.90;99.90;;;;;;4864009;29;20363;-92
2024/04/02 06:57:48;;;;;;;31.23;17.85;;;17.40;99.90;;;;;;4848308;29;20029;-91
2024/04/02 07:00:16;;;;;;;38.40;17.70;;;17.40;99.90;;;;;;4863391;29;20025;-90
2024/04/02 07:02:45;;;;;;;34.75;17.77;;;17.30;99.90;;;;;;4847933;29;20477;-91
2024/04/02 07:05:12;;;;;;;31.48;16.77;;;17.40;99.90;;;;;;4862444;29;20033;-91
2024/04/02 07:07:41;;;;;;;25.95;16.58;;;17.60;99.90;;;;;;4863409;29;20101;-91
2024/04/02 07:10:08;;;;;;;34.95;17.48;;;17.80;99.90;;;;;;4865069;29;20041;-91
2024/04/02 07:12:34;;;;;;;24.63;16.35;;;18.10;99.90;;;;;;4851305;29;20041;-90
2024/04/02 07:15:00;;;;;;;26.55;17.80;;;18.30;99.90;;;;;;4858364;29;20041;-89
2024/04/02 07:17:27;;;;;;;30.80;18.00;;;18.40;99.90;;;;;;4845308;29;20140;-89
2024/04/02 07:19:53;;;;;;;35.97;17.95;;;18.60;99.90;;;;;;4864204;29;20029;-91
2024/04/02 07:22:20;;;;;;;31.80;17.95;;;18.80;99.90;;;;;;4848020;29;20053;-91
2024/04/02 07:24:47;;;;;;;42.08;19.17;;;18.50;99.90;;;;;;4863768;29;20029;-90
2024/04/02 07:27:13;;;;;;;34.50;18.52;;;18.30;99.90;;;;;;4848019;29;20032;-90
2024/04/02 07:29:40;;;;;;;27.75;18.13;;;18.30;99.90;;;;;;4847601;29;20029;-91
2024/04/02 07:32:07;;;;;;;34.88;19.27;;;18.20;99.90;;;;;;4878568;29;20045;-89
2024/04/02 07:34:33;;;;;;;38.63;18.30;;;18.20;99.90;;;;;;4863597;29;20124;-89
2024/04/02 07:37:00;;;;;;;35.10;18.17;;;18.30;99.90;;;;;;4881490;29;20041;-92
2024/04/02 07:39:26;;;;;;;32.95;18.65;;;18.30;99.90;;;;;;4845525;29;20116;-89
2024/04/02 07:41:52;;;;;;;34.38;18.45;;;18.40;99.90;;;;;;4847758;29;20045;-90
2024/04/02 07:44:19;;;;;;;36.95;18.77;;;18.50;99.90;;;;;;4854639;29;20034;-89
2024/04/02 07:46:45;;;;;;;37.67;18.63;;;18.70;99.90;;;;;;4850770;29;20077;-88
2024/04/02 07:49:12;;;;;;;33.45;17.48;;;18.40;99.90;;;;;;4850871;29;20032;-89
2024/04/02 07:51:39;;;;;;;33.20;19.25;;;18.30;99.90;;;;;;4866217;29;20033;-84
2024/04/02 07:54:07;;;;;;;28.77;19.25;;;18.30;99.90;;;;;;4850839;29;20036;-89
2024/04/02 07:56:33;;;;;;;35.85;18.90;;;18.50;99.90;;;;;;4851035;29;20120;-89
2024/04/02 07:59:04;;;;;;;25.50;19.67;;;18.60;99.90;;;;;;4865596;29;20085;-85
2024/04/02 08:01:33;;;;;;;34.50;19.38;;;19.00;99.90;;;;;;4850147;29;20131;-87
2024/04/02 08:04:00;;;;;;;35.72;18.88;;;19.20;99.90;;;;;;4865127;29;20033;-86
2024/04/02 08:06:27;;;;;;;33.13;19.83;;;19.30;99.90;;;;;;4880544;29;20025;-85
2024/04/02 08:08:53;;;;;;;30.83;19.25;;;19.30;99.90;;;;;;4864540;29;20025;-86
2024/04/02 08:11:20;;;;;;;41.60;20.50;;;19.40;99.90;;;;;;4849894;29;20033;-87
2024/04/02 08:13:48;;;;;;;33.78;20.45;;;19.80;99.90;;;;;;4881136;29;20090;-88
2024/04/02 08:16:18;;;;;;;42.13;21.30;;;19.90;99.90;;;;;;4850331;29;20033;-89
2024/04/02 08:18:47;;;;;;;35.70;22.23;;;19.90;99.90;;;;;;4865339;29;20039;-88
2024/04/02 08:21:14;;;;;;;33.00;27.92;;;19.60;99.90;;;;;;4849665;29;20117;-88
2024/04/02 08:23:43;;;;;;;31.17;28.15;;;19.40;99.90;;;;;;4864344;29;20204;-87
2024/04/02 08:26:10;;;;;;;30.67;27.20;;;19.30;99.90;;;;;;4862835;29;20041;-88
2024/04/02 08:28:37;;;;;;;44.40;28.38;;;19.30;99.90;;;;;;4865061;29;20032;-88
2024/04/02 08:31:03;;;;;;;35.67;27.17;;;19.20;99.90;;;;;;4880615;29;20427;-88
2024/04/02 08:33:30;;;;;;;36.60;27.38;;;19.00;99.90;;;;;;4846538;29;20348;-86
2024/04/02 08:35:56;;;;;;;32.95;28.42;;;19.10;99.90;;;;;;4862069;29;20185;-86
2024/04/02 08:38:23;;;;;;;44.45;28.85;;;19.70;99.90;;;;;;4861852;29;20025;-87
2024/04/02 08:40:54;;;;;;;42.75;28.08;;;20.50;99.90;;;;;;4865125;29;20060;-90
2024/04/02 08:43:22;;;;;;;40.47;30.23;;;21.10;99.90;;;;;;4865132;29;20045;-89
2024/04/02 08:45:50;;;;;;;45.67;29.50;;;21.30;99.90;;;;;;4849722;29;20033;-89
2024/04/02 08:48:18;;;;;;;42.47;29.23;;;21.10;99.90;;;;;;4880290;29;20088;-89
2024/04/02 08:50:44;;;;;;;39.45;29.10;;;21.10;99.90;;;;;;4864991;29;20036;-87
2024/04/02 08:53:11;;;;;;;35.75;29.90;;;21.40;99.90;;;;;;4848635;29;20029;-88
2024/04/02 09:19:49;;;;;;;29.83;27.60;;;21.00;99.90;;;;;;5708296;23;20413;-81
2024/04/02 09:22:17;;;;;;;31.45;29.13;;;21.30;99.90;;;;;;4847593;29;20041;-81
2024/04/02 09:24:44;;;;;;;32.35;29.75;;;21.30;99.90;;;;;;4859364;29;20034;-80
2024/04/02 09:27:11;;;;;;;31.73;29.20;;;21.40;99.90;;;;;;4856613;29;20052;-80
2024/04/02 09:29:39;;;;;;;32.33;30.00;;;21.30;99.90;;;;;;4877194;29;20097;-80
2024/04/02 09:32:17;;;;;;;33.30;30.60;;;21.20;99.90;;;;;;4843826;29;20033;-80
2024/04/02 09:34:48;;;;;;;32.10;29.65;;;21.20;99.90;;;;;;4827122;29;20033;-81
2024/04/02 09:37:28;;;;;;;32.63;30.25;;;21.30;99.90;;;;;;4835110;29;20077;-81
2024/04/02 09:39:56;;;;;;;32.97;30.35;;;21.30;99.90;;;;;;4855407;29;20037;-78
2024/04/02 09:42:25;;;;;;;33.65;31.05;;;21.80;99.90;;;;;;4860931;29;20040;-78
2024/04/02 09:44:53;;;;;;;33.20;30.73;;;22.00;99.90;;;;;;4860598;29;20387;-78
2024/04/02 09:47:20;;;;;;;34.13;31.08;;;21.90;99.90;;;;;;4859350;29;20584;-78
2024/04/02 09:49:48;;;;;;;33.53;30.95;;;21.80;99.90;;;;;;4870546;29;20033;-78
2024/04/02 09:52:15;;;;;;;33.70;30.92;;;21.80;99.90;;;;;;4860939;29;20021;-78
2024/04/02 09:54:43;;;;;;;32.55;29.95;;;21.90;99.90;;;;;;4844346;29;20065;-78
2024/04/02 09:57:11;;;;;;;33.88;31.10;;;21.90;99.90;;;;;;4858551;29;20036;-78
2024/04/02 09:59:41;;;;;;;32.78;30.40;;;21.70;99.90;;;;;;4843527;29;20043;-78
2024/04/02 10:02:16;;;;;;;33.50;30.85;;;21.90;99.90;;;;;;4859196;29;20047;-78
2024/04/02 10:04:47;;;;;;;32.70;30.55;;;22.30;99.90;;;;;;4861376;29;20081;-78
2024/04/02 10:07:30;;;;;;;33.50;31.38;;;22.20;99.90;;;;;;4861143;29;20021;-77
2024/04/02 10:10:00;;;;;;;33.47;31.00;;;22.10;99.90;;;;;;4860639;29;20025;-78
2024/04/02 10:12:32;;;;;;;33.22;30.98;;;22.40;99.90;;;;;;4859488;29;20022;-78
2024/04/02 10:15:05;;;;;;;34.38;31.98;;;22.40;99.90;;;;;;4860580;29;20032;-78
2024/04/02 10:17:35;;;;;;;;;;;22.50;99.90;;;;;;4859970;29;20060;-77
2024/04/02 10:20:02;;;;;;;34.90;31.52;;;22.50;99.90;;;;;;4864911;29;19920;-79
2024/04/02 10:22:36;;;;;;;33.30;31.08;;;22.60;99.90;;;;;;4846657;29;20521;-79
2024/04/02 10:25:11;;;;;;;34.67;32.22;;;22.60;99.90;;;;;;4862373;29;20420;-79
2024/04/02 10:27:44;;;;;;;36.53;33.63;;;22.80;99.90;;;;;;4878569;29;20112;-79
2024/04/02 10:30:18;;;;;;;36.03;33.53;;;23.00;99.90;;;;;;4860224;29;20388;-79
2024/04/02 10:32:45;;;;;;;35.40;32.95;;;22.90;99.90;;;;;;4859412;29;20042;-78
2024/04/02 10:35:24;;;;;;;36.22;33.42;;;22.80;99.90;;;;;;4860555;29;20032;-78
2024/04/02 10:37:56;;;;;;;36.30;33.17;;;22.60;99.90;;;;;;4830361;29;20033;-78
2024/04/02 10:40:23;;;;;;;37.05;34.30;;;22.50;99.90;;;;;;4856240;29;20038;-78
2024/04/02 10:42:52;;;;;;;36.00;33.40;;;22.10;99.90;;;;;;4859104;29;20033;-78
2024/04/02 10:45:19;;;;;;;34.45;32.17;;;22.00;99.90;;;;;;4860282;29;20029;-78
2024/04/02 10:47:49;;;;;;;36.08;33.13;;;22.20;99.90;;;;;;4828546;29;20105;-78
2024/04/02 10:50:17;;;;;;;36.15;33.80;;;22.40;99.90;;;;;;4860208;29;20068;-78
2024/04/02 10:52:48;;;;;;;35.92;33.42;;;22.40;99.90;;;;;;4843946;29;20380;-78
2024/04/02 10:55:27;;;;;;;35.50;33.17;;;22.20;99.90;;;;;;4859020;29;20040;-77
2024/04/02 10:58:02;;;;;;;35.55;33.25;;;22.30;99.90;;;;;;4860159;29;20057;-78
2024/04/02 11:00:29;;;;;;;35.42;33.08;;;22.40;99.90;;;;;;4843410;29;20033;-78
2024/04/02 11:02:55;;;;;;;36.17;33.47;;;22.60;99.90;;;;;;4843112;29;20452;-78
2024/04/02 11:05:22;;;;;;;35.90;33.22;;;22.40;99.90;;;;;;4859989;29;20090;-78
2024/04/02 11:07:49;;;;;;;36.25;33.67;;;22.20;99.90;;;;;;4843925;29;20037;-80
2024/04/02 11:10:16;;;;;;;37.85;35.22;;;22.20;99.90;;;;;;4875498;29;20033;-80
2024/04/02 11:12:42;;;;;;;38.67;36.17;;;22.20;99.90;;;;;;4870512;29;20033;-79
2024/04/02 11:15:10;;;;;;;38.95;36.65;;;22.20;99.90;;;;;;4865658;29;20049;-79
2024/04/02 11:17:38;;;;;;;39.25;36.75;;;22.20;99.90;;;;;;4865372;29;20029;-79
2024/04/02 11:20:11;;;;;;;38.45;36.25;;;22.20;99.90;;;;;;4878320;29;20048;-78
2024/04/02 11:25:42;;;;;;;40.00;37.33;;;22.20;99.90;;;;;;4806531;29;20039;-79
2024/04/02 11:28:11;;;;;;;39.25;36.90;;;22.10;99.90;;;;;;4791455;29;20053;-79
2024/04/02 11:30:41;;;;;;;38.42;36.00;;;22.30;99.90;;;;;;4806300;29;20055;-79
2024/04/02 11:33:08;;;;;;;38.50;36.03;;;22.10;99.90;;;;;;4805952;29;20027;-79
2024/04/02 11:35:34;;;;;;;38.83;36.53;;;22.00;99.90;;;;;;4806467;29;20106;-78
2024/04/02 11:38:01;;;;;;;37.97;35.67;;;22.00;99.90;;;;;;4791211;29;20039;-80
2024/04/02 11:40:27;;;;;;;38.53;35.97;;;22.10;99.90;;;;;;4809647;29;20507;-80
2024/04/02 11:42:54;;;;;;;38.45;35.92;;;22.20;99.90;;;;;;4809387;29;20081;-80
2024/04/02 11:45:21;;;;;;;38.55;36.25;;;22.30;99.90;;;;;;4820526;29;20038;-80
2024/04/02 11:47:47;;;;;;;39.17;36.75;;;22.20;99.90;;;;;;4806331;29;20035;-80
2024/04/02 11:50:16;;;;;;;40.00;37.22;;;22.10;99.90;;;;;;4798728;29;20060;-77
2024/04/02 11:52:43;;;;;;;38.92;36.55;;;22.10;99.90;;;;;;4834936;29;20031;-79
2024/04/02 11:55:09;;;;;;;38.35;35.85;;;22.00;99.90;;;;;;4823968;29;20035;-80
2024/04/02 12:00:21;;;;;;;38.80;36.40;;;22.00;99.90;;;;;;4862895;29;20429;-83
2024/04/02 12:02:48;;;;;;;39.00;36.28;;;22.10;99.90;;;;;;4831064;29;20411;-80
2024/04/02 12:05:18;;;;;;;38.88;36.47;;;22.20;99.90;;;;;;4846146;29;20076;-80
2024/04/02 12:07:44;;;;;;;39.10;36.63;;;22.20;99.90;;;;;;4846210;29;20550;-80
2024/04/02 12:10:12;;;;;;;39.72;37.20;;;22.30;99.90;;;;;;4862705;29;20388;-80
2024/04/02 12:12:39;;;;;;;38.92;36.55;;;22.10;99.90;;;;;;4830816;29;20037;-80
2024/04/02 12:15:08;;;;;;;37.88;35.25;;;22.00;99.90;;;;;;4865789;29;20371;-81
2024/04/02 12:17:35;;;;;;;36.70;34.40;;;21.50;99.90;;;;;;4881166;29;20032;-79
2024/04/02 12:20:03;;;;;;;37.45;35.08;;;21.30;99.90;;;;;;4862210;29;20128;-80
2024/04/02 12:22:30;;;;;;;37.60;34.97;;;21.10;99.90;;;;;;4861883;29;20491;-81
2024/04/02 12:24:56;;;;;;;37.72;35.40;;;21.30;99.90;;;;;;4832106;29;20054;-79
2024/04/02 12:27:27;;;;;;;38.92;36.42;;;21.60;99.90;;;;;;4880990;29;20039;-80
2024/04/02 12:29:55;;;;;;;38.42;36.08;;;21.90;99.90;;;;;;4880134;29;20103;-79
2024/04/02 12:32:23;;;;;;;40.33;37.72;;;22.00;99.90;;;;;;4846675;29;20037;-78
2024/04/02 12:34:50;;;;;;;38.28;35.67;;;22.10;99.90;;;;;;4845390;29;20040;-78
2024/04/02 12:37:17;;;;;;;38.00;35.60;;;22.30;99.90;;;;;;4829763;29;20033;-78
2024/04/02 12:39:46;;;;;;;37.67;35.33;;;22.30;99.90;;;;;;4844192;29;20017;-78
2024/04/02 12:42:16;;;;;;;37.28;34.97;;;22.40;99.90;;;;;;4864519;29;20025;-79
2024/04/02 12:44:43;;;;;;;37.78;35.38;;;22.50;99.90;;;;;;4880466;29;20035;-79
2024/04/02 12:47:16;;;;;;;37.83;35.50;;;22.60;99.90;;;;;;4880449;29;20025;-78
2024/04/02 12:49:42;;;;;;;37.80;35.40;;;22.50;99.90;;;;;;4878197;29;20036;-79
2024/04/02 12:52:09;;;;;;;38.20;35.50;;;22.20;99.90;;;;;;4861852;29;20034;-79
2024/04/02 12:54:37;;;;;;;38.10;35.70;;;22.20;99.90;;;;;;4861758;29;20025;-79
2024/04/02 12:57:03;;;;;;;39.13;36.42;;;22.20;99.90;;;;;;4844158;29;20577;-79
2024/04/02 12:59:29;;;;;;;38.55;35.75;;;22.30;99.90;;;;;;4858652;29;20025;-80
2024/04/02 13:01:56;;;;;;;39.00;36.35;;;22.30;99.90;;;;;;4827522;29;20034;-78